KPSK/PSK METAR and TAF weather

Enter ICAO airport designator
Station Type Date Time Source
KPSK METAR 2018/12/18 18:55 UTC NOAA

KPSK 181855Z AUTO 00000KT 10SM CLR 09/M07 A3012 RMK AO2 T00881067


Station Type Date Time Source
KPSK Decoded METAR 2018/12/18 18:55 UTC NOAA

Dublin / New River Valley, VA, United States (KPSK) 37-08N 080-41W
Dec 18, 2018 - 01:55 PM EST / 2018.12.18 1855 UTC
Wind: Calm:0
Visibility: 10 mile(s):0
Sky conditions: clear
Temperature: 47.8 F (8.8 C)
Dew Point: 19.9 F (-6.7 C)
Relative Humidity: 32%
Pressure (altimeter): 30.12 in. Hg (1019 hPa)
ob: KPSK 181855Z AUTO 00000KT 10SM CLR 09/M07 A3012 RMK AO2 T00881067
cycle: 19

Station Type Date Time Source
KPSK TAF UTC NOAA

Error!


Example: see airport list